createdAt,value
2022-11-30T00:02:14.168Z,38.13
2022-11-30T00:04:45.099Z,39.50
2022-11-30T00:07:14.426Z,38.05
2022-11-30T00:09:43.487Z,39.88
2022-11-30T00:12:12.717Z,38.63
2022-11-30T00:14:41.889Z,38.85
2022-11-30T00:17:11.013Z,39.05
2022-11-30T00:19:40.117Z,41.88
2022-11-30T00:22:10.735Z,39.75
2022-11-30T00:24:39.895Z,40.65
2022-11-30T00:27:09.109Z,39.97
2022-11-30T00:29:40.580Z,40.15
2022-11-30T00:32:09.755Z,38.90
2022-11-30T00:34:38.875Z,40.50
2022-11-30T00:37:08.082Z,39.20
2022-11-30T00:39:39.596Z,39.22
2022-11-30T00:42:08.850Z,36.72
2022-11-30T00:44:38.017Z,38.55
2022-11-30T00:47:07.463Z,37.42
2022-11-30T00:49:36.758Z,35.50
2022-11-30T00:52:06.638Z,36.50
2022-11-30T00:54:36.745Z,34.28
2022-11-30T00:57:07.305Z,36.83
2022-11-30T00:59:39.423Z,36.22
2022-11-30T01:02:08.655Z,35.97
2022-11-30T01:04:37.888Z,36.22
2022-11-30T01:07:07.258Z,37.08
2022-11-30T01:09:38.163Z,36.50
2022-11-30T01:12:10.009Z,38.33
2022-11-30T01:14:39.224Z,36.55
2022-11-30T01:17:08.371Z,36.22
2022-11-30T01:19:37.454Z,36.97
2022-11-30T01:22:06.550Z,36.38
2022-11-30T01:24:36.516Z,35.70
2022-11-30T01:27:05.818Z,35.15
2022-11-30T01:29:38.258Z,35.40
2022-11-30T01:32:07.847Z,35.83
2022-11-30T01:34:37.560Z,39.15
2022-11-30T01:37:07.787Z,38.08
2022-11-30T01:39:37.603Z,38.97
2022-11-30T01:42:14.301Z,41.13
2022-11-30T01:44:55.504Z,38.90
2022-11-30T01:47:30.748Z,39.13
2022-11-30T01:50:05.048Z,38.58
2022-11-30T01:52:38.691Z,38.63
2022-11-30T01:55:17.468Z,37.83
2022-11-30T01:57:50.421Z,39.40
2022-11-30T02:00:22.200Z,41.65
2022-11-30T02:03:06.169Z,39.72
2022-11-30T02:05:43.486Z,40.88
2022-11-30T02:10:46.550Z,40.03
2022-11-30T02:13:53.534Z,40.20
2022-11-30T02:16:31.603Z,38.70
2022-11-30T02:19:22.259Z,39.85
2022-11-30T02:21:56.745Z,41.17
2022-11-30T02:24:46.729Z,41.83
2022-11-30T02:27:28.904Z,40.22
2022-11-30T02:30:06.637Z,39.65
2022-11-30T02:32:46.826Z,40.72
2022-11-30T02:35:20.918Z,39.08
2022-11-30T02:37:52.958Z,39.88
2022-11-30T02:40:22.846Z,39.47
2022-11-30T02:42:56.256Z,38.00
2022-11-30T02:45:38.138Z,39.78
2022-11-30T02:48:10.895Z,37.25
2022-11-30T02:50:45.646Z,38.00
2022-11-30T02:53:14.916Z,38.95
2022-11-30T02:55:44.064Z,39.67
2022-11-30T02:58:13.437Z,37.95
2022-11-30T03:00:44.022Z,40.80
2022-11-30T03:03:13.207Z,38.67
2022-11-30T03:05:42.251Z,39.03
2022-11-30T03:08:11.329Z,39.38
2022-11-30T03:10:40.611Z,38.95
2022-11-30T03:13:09.677Z,38.88
2022-11-30T03:15:38.867Z,37.33
2022-11-30T03:18:09.452Z,36.75
2022-11-30T03:20:42.705Z,37.08
2022-11-30T03:23:11.940Z,37.85
2022-11-30T03:25:41.093Z,37.45
2022-11-30T03:28:10.254Z,38.55
2022-11-30T03:30:40.525Z,39.13
2022-11-30T03:33:10.990Z,40.83
2022-11-30T03:35:40.125Z,40.53
2022-11-30T03:38:09.234Z,41.28
2022-11-30T03:40:38.800Z,38.15
2022-11-30T03:43:07.880Z,39.72
2022-11-30T03:45:40.031Z,38.58
2022-11-30T03:48:10.579Z,37.97
2022-11-30T03:50:39.671Z,37.83
2022-11-30T03:53:08.816Z,38.13
2022-11-30T03:55:38.277Z,38.92
2022-11-30T03:58:07.385Z,39.45
2022-11-30T04:00:40.410Z,42.13
2022-11-30T04:03:11.145Z,42.22
2022-11-30T04:05:40.282Z,40.17
2022-11-30T04:08:09.447Z,43.28
2022-11-30T04:10:38.910Z,42.03
2022-11-30T04:13:08.030Z,43.53
2022-11-30T04:15:40.766Z,42.08
2022-11-30T04:18:11.336Z,40.33
2022-11-30T04:20:40.912Z,42.53
2022-11-30T04:23:10.487Z,41.55
2022-11-30T04:25:42.967Z,41.95
2022-11-30T04:28:13.287Z,39.97
2022-11-30T04:30:43.010Z,44.03
2022-11-30T04:33:15.042Z,42.55
2022-11-30T04:35:47.954Z,45.83
2022-11-30T04:38:17.095Z,46.13
2022-11-30T04:40:46.314Z,47.10
2022-11-30T04:43:15.699Z,44.72
2022-11-30T04:45:46.105Z,44.63
2022-11-30T04:48:18.255Z,43.33
2022-11-30T04:50:47.788Z,41.17
2022-11-30T04:53:16.999Z,38.97
2022-11-30T04:55:46.458Z,42.42
2022-11-30T04:58:15.700Z,38.90
2022-11-30T05:00:44.923Z,40.05
2022-11-30T05:03:14.019Z,38.65
2022-11-30T05:05:44.641Z,40.30
2022-11-30T05:08:13.847Z,42.50
2022-11-30T05:10:42.962Z,41.45
2022-11-30T05:13:12.220Z,41.63
2022-11-30T05:15:41.335Z,44.95
2022-11-30T05:18:10.458Z,47.33
2022-11-30T05:20:39.664Z,43.05
2022-11-30T05:23:10.116Z,38.25
2022-11-30T05:25:39.245Z,44.63
2022-11-30T05:28:08.772Z,39.22
2022-11-30T05:30:45.231Z,38.17
2022-11-30T05:33:14.441Z,36.77
2022-11-30T05:35:43.969Z,37.97
2022-11-30T05:38:14.494Z,50.97
2022-11-30T05:40:43.653Z,44.88
2022-11-30T05:43:12.841Z,40.33
2022-11-30T05:45:42.249Z,39.50
2022-11-30T05:48:11.312Z,42.67
2022-11-30T05:50:43.579Z,41.67
2022-11-30T05:53:14.079Z,39.22
2022-11-30T05:55:43.875Z,40.67
2022-11-30T05:58:13.222Z,44.38
2022-11-30T06:00:42.659Z,40.88
2022-11-30T06:03:11.916Z,43.15
2022-11-30T06:05:41.294Z,42.10
2022-11-30T06:08:10.553Z,39.72
2022-11-30T06:10:42.335Z,37.85
2022-11-30T06:13:11.564Z,38.55
2022-11-30T06:15:41.407Z,40.75
2022-11-30T06:18:13.122Z,43.42
2022-11-30T06:20:42.757Z,38.53
2022-11-30T06:23:11.767Z,36.58
2022-11-30T06:25:42.322Z,37.25
2022-11-30T06:28:11.887Z,43.97
2022-11-30T06:30:41.007Z,41.88
2022-11-30T06:33:10.113Z,36.80
2022-11-30T06:35:45.413Z,35.60
2022-11-30T06:38:14.556Z,37.75
2022-11-30T06:40:45.062Z,37.63
2022-11-30T06:43:14.573Z,37.88
2022-11-30T06:45:45.619Z,35.55
2022-11-30T06:48:15.542Z,36.10
2022-11-30T06:50:49.858Z,35.72
2022-11-30T06:53:19.241Z,36.47
2022-11-30T06:55:49.687Z,34.65
2022-11-30T06:58:18.784Z,33.85
2022-11-30T07:00:47.966Z,34.78
2022-11-30T07:03:17.303Z,34.65
2022-11-30T07:05:47.992Z,36.17
2022-11-30T07:08:18.739Z,34.88
2022-11-30T07:10:50.170Z,33.90
2022-11-30T07:13:20.398Z,33.53
2022-11-30T07:15:49.431Z,34.80
2022-11-30T07:21:04.502Z,33.50
2022-11-30T07:23:56.225Z,33.30
2022-11-30T07:26:27.352Z,33.58
2022-11-30T07:28:58.427Z,33.53
2022-11-30T07:31:30.854Z,33.55
2022-11-30T07:34:04.841Z,32.97
2022-11-30T07:36:34.922Z,31.35
2022-11-30T07:39:04.967Z,31.77
2022-11-30T07:41:35.386Z,32.92
2022-11-30T07:44:05.734Z,32.63
2022-11-30T07:46:36.094Z,32.67
2022-11-30T07:49:05.914Z,32.72
2022-11-30T07:51:35.511Z,31.27
2022-11-30T07:54:05.932Z,30.55
2022-11-30T07:56:36.312Z,31.10
2022-11-30T07:59:05.673Z,30.73
2022-11-30T08:01:35.036Z,30.58
2022-11-30T08:04:04.258Z,28.65
2022-11-30T08:06:33.522Z,29.65
2022-11-30T08:09:05.263Z,29.75
2022-11-30T08:11:37.129Z,30.48
2022-11-30T08:14:06.598Z,31.23
2022-11-30T08:16:38.943Z,29.67
2022-11-30T08:19:08.132Z,31.13
2022-11-30T08:21:38.144Z,29.88
2022-11-30T08:24:07.817Z,30.90
2022-11-30T08:26:38.193Z,31.10
2022-11-30T08:29:07.208Z,31.15
2022-11-30T08:31:38.146Z,30.52
2022-11-30T08:34:09.187Z,27.75
2022-11-30T08:36:39.179Z,26.25
2022-11-30T08:39:09.821Z,26.63
2022-11-30T08:41:40.228Z,28.30
2022-11-30T08:44:09.488Z,26.48
2022-11-30T08:46:54.052Z,27.88
2022-11-30T08:49:25.106Z,25.23
2022-11-30T08:54:48.672Z,28.40
2022-11-30T08:57:22.478Z,25.50
2022-11-30T08:59:51.459Z,23.58
2022-11-30T09:02:21.038Z,25.38
2022-11-30T09:04:51.762Z,24.45
2022-11-30T09:07:21.122Z,26.35
2022-11-30T09:09:50.241Z,25.33
2022-11-30T09:12:20.681Z,25.15
2022-11-30T09:14:56.027Z,24.17
2022-11-30T09:17:26.959Z,23.95
2022-11-30T09:19:56.323Z,29.27
2022-11-30T09:22:25.578Z,29.08
2022-11-30T09:24:54.970Z,26.42
2022-11-30T09:27:31.996Z,26.08
2022-11-30T09:30:01.228Z,25.00
2022-11-30T09:32:30.825Z,27.17
2022-11-30T09:34:59.854Z,24.00
2022-11-30T09:37:28.899Z,24.27
2022-11-30T09:39:57.955Z,24.88
2022-11-30T09:42:52.962Z,22.35
2022-11-30T09:45:29.570Z,23.80
2022-11-30T09:48:12.541Z,23.13
2022-11-30T09:50:45.628Z,24.48
2022-11-30T09:53:29.121Z,23.08
2022-11-30T09:56:01.661Z,22.45
2022-11-30T09:58:45.174Z,22.42
2022-11-30T10:01:21.215Z,19.85
2022-11-30T10:03:51.150Z,20.50
2022-11-30T10:06:27.759Z,19.77
2022-11-30T10:09:30.795Z,21.35
2022-11-30T10:12:07.384Z,19.23
2022-11-30T10:15:00.342Z,15.23
2022-11-30T10:17:40.950Z,19.42
2022-11-30T10:20:39.078Z,18.60
2022-11-30T10:23:24.709Z,17.88
2022-11-30T10:25:59.025Z,18.50
2022-11-30T10:28:47.500Z,17.77
2022-11-30T10:31:21.162Z,16.70
2022-11-30T10:33:53.237Z,17.83
2022-11-30T10:36:30.667Z,17.88
2022-11-30T10:41:36.668Z,17.67
2022-11-30T10:44:13.284Z,17.30
2022-11-30T10:46:50.042Z,16.65
2022-11-30T10:49:23.456Z,11.80
2022-11-30T10:51:59.510Z,15.27
2022-11-30T10:54:31.025Z,15.90
2022-11-30T10:57:02.638Z,16.77
2022-11-30T10:59:43.789Z,16.60
2022-11-30T11:02:41.875Z,15.30
2022-11-30T11:05:19.346Z,15.55
2022-11-30T11:08:01.242Z,16.63
2022-11-30T11:10:37.870Z,16.27
2022-11-30T11:13:07.516Z,17.48
2022-11-30T11:15:37.161Z,18.92
2022-11-30T11:18:26.276Z,18.77
2022-11-30T11:21:06.699Z,17.88
2022-11-30T11:23:39.260Z,17.55
2022-11-30T11:26:17.269Z,18.63
2022-11-30T11:28:50.189Z,19.48
2022-11-30T11:31:30.551Z,18.85
2022-11-30T11:34:01.042Z,15.80
2022-11-30T11:36:33.141Z,18.33
2022-11-30T11:39:03.689Z,17.67
2022-11-30T11:41:35.409Z,18.45
2022-11-30T11:44:17.172Z,18.08
2022-11-30T11:46:56.796Z,20.02
2022-11-30T11:49:29.748Z,19.80
2022-11-30T11:52:02.807Z,19.75
2022-11-30T11:54:37.974Z,20.27
2022-11-30T11:57:10.661Z,21.40
2022-11-30T11:59:46.691Z,24.80
2022-11-30T12:02:30.794Z,20.02
2022-11-30T12:05:08.185Z,21.52
2022-11-30T12:10:51.214Z,24.88
2022-11-30T12:13:19.061Z,22.52
2022-11-30T12:16:05.952Z,21.55
2022-11-30T12:18:48.476Z,24.05
2022-11-30T12:21:30.561Z,22.98
2022-11-30T12:24:21.716Z,21.05
2022-11-30T12:26:58.287Z,19.23
2022-11-30T12:29:42.337Z,36.63
2022-11-30T12:32:27.033Z,22.13
2022-11-30T12:35:14.733Z,26.88
2022-11-30T12:37:59.523Z,30.20
2022-11-30T12:40:42.112Z,20.02
2022-11-30T12:43:25.780Z,17.13
2022-11-30T12:46:08.421Z,15.27
2022-11-30T12:48:49.138Z,17.15
2022-11-30T12:51:29.745Z,17.25
2022-11-30T12:54:10.048Z,17.30
2022-11-30T12:56:47.781Z,16.05
2022-11-30T12:59:28.009Z,16.17
2022-11-30T13:02:36.994Z,16.90
2022-11-30T13:07:46.154Z,16.23
2022-11-30T13:10:27.736Z,16.35
2022-11-30T13:12:58.628Z,16.42
2022-11-30T13:15:32.175Z,17.23
2022-11-30T13:18:02.445Z,15.95
2022-11-30T13:20:39.922Z,18.25
2022-11-30T13:23:17.207Z,18.40
2022-11-30T13:29:02.204Z,18.65
2022-11-30T13:31:37.776Z,18.67
2022-11-30T13:34:26.612Z,16.73
2022-11-30T13:37:08.057Z,16.77
2022-11-30T13:39:55.843Z,17.77
2022-11-30T13:42:36.882Z,16.50
2022-11-30T13:45:31.956Z,17.80
2022-11-30T13:48:20.812Z,16.23
2022-11-30T13:50:50.273Z,15.57
2022-11-30T13:53:26.818Z,16.15
2022-11-30T13:56:33.081Z,16.27
2022-11-30T13:59:36.301Z,17.67
2022-11-30T14:03:18.329Z,15.77
2022-11-30T14:05:48.337Z,16.20
2022-11-30T14:08:33.763Z,16.58
2022-11-30T14:11:42.212Z,16.00
2022-11-30T14:14:46.346Z,15.57
2022-11-30T14:17:21.076Z,14.65
2022-11-30T14:19:54.027Z,15.32
2022-11-30T14:22:23.968Z,15.20
2022-11-30T14:24:55.506Z,13.82
2022-11-30T14:27:28.399Z,13.13
2022-11-30T14:30:04.431Z,14.10
2022-11-30T14:32:43.665Z,14.13
2022-11-30T14:35:17.978Z,13.23
2022-11-30T14:37:55.518Z,13.32
2022-11-30T14:40:27.756Z,13.52
2022-11-30T14:42:59.642Z,13.10
2022-11-30T14:45:35.003Z,12.07
2022-11-30T14:48:13.611Z,11.63
2022-11-30T14:50:47.724Z,13.00
2022-11-30T14:53:35.004Z,11.98
2022-11-30T14:56:17.850Z,12.50
2022-11-30T14:58:54.278Z,12.60
2022-11-30T15:01:27.703Z,12.93
2022-11-30T15:04:11.284Z,12.73
2022-11-30T15:06:42.011Z,13.60
2022-11-30T15:09:18.007Z,12.65
2022-11-30T15:11:50.038Z,13.75
2022-11-30T15:14:19.620Z,13.40
2022-11-30T15:16:53.189Z,12.70
2022-11-30T15:19:25.767Z,13.57
2022-11-30T15:21:56.716Z,14.80
2022-11-30T15:24:27.219Z,12.55
2022-11-30T15:27:06.975Z,13.82
2022-11-30T15:29:43.757Z,13.68
2022-11-30T15:32:20.472Z,14.13
2022-11-30T15:34:56.543Z,14.25
2022-11-30T15:37:32.671Z,13.18
2022-11-30T15:40:05.793Z,14.15
2022-11-30T15:42:40.316Z,13.70
2022-11-30T15:45:17.153Z,14.10
2022-11-30T15:47:47.787Z,14.55
2022-11-30T15:50:40.960Z,14.52
2022-11-30T15:53:36.251Z,14.20
2022-11-30T15:56:09.579Z,16.67
2022-11-30T15:58:46.567Z,18.33
2022-11-30T16:01:20.548Z,16.25
2022-11-30T16:04:07.059Z,18.63
2022-11-30T16:06:39.488Z,17.92
2022-11-30T16:09:21.216Z,16.83
2022-11-30T16:11:54.488Z,16.95
2022-11-30T16:14:23.767Z,16.77
2022-11-30T16:16:55.478Z,19.40
2022-11-30T16:19:26.129Z,17.30
2022-11-30T16:21:55.259Z,19.17
2022-11-30T16:24:24.612Z,18.65
2022-11-30T16:26:53.653Z,17.52
2022-11-30T16:29:22.840Z,14.82
2022-11-30T16:31:52.048Z,15.38
2022-11-30T16:34:21.195Z,13.57
2022-11-30T16:36:53.754Z,12.90
2022-11-30T16:39:22.841Z,61.90
2022-11-30T16:41:51.898Z,62.20
2022-11-30T16:44:20.938Z,50.30
2022-11-30T16:46:50.390Z,53.33
2022-11-30T16:49:19.497Z,48.95
2022-11-30T16:51:48.863Z,38.63
2022-11-30T16:54:19.388Z,28.65
2022-11-30T16:56:48.407Z,23.65
2022-11-30T16:59:17.449Z,23.33
2022-11-30T17:01:52.852Z,18.42
2022-11-30T17:04:24.739Z,16.23
2022-11-30T17:07:00.479Z,15.25
2022-11-30T17:12:04.270Z,14.70
2022-11-30T17:14:33.402Z,13.75
2022-11-30T17:17:02.748Z,15.00
2022-11-30T17:19:31.891Z,15.00
2022-11-30T17:22:01.095Z,23.88
2022-11-30T17:24:30.321Z,17.65
2022-11-30T17:27:01.056Z,22.23
2022-11-30T17:29:30.240Z,18.33
2022-11-30T17:31:59.406Z,16.55
2022-11-30T17:34:28.538Z,16.85
2022-11-30T17:36:57.689Z,17.70
2022-11-30T17:39:26.699Z,17.83
2022-11-30T17:41:55.773Z,16.73
2022-11-30T17:44:26.254Z,15.10
2022-11-30T17:46:55.464Z,14.25
2022-11-30T17:49:24.664Z,14.70
2022-11-30T17:51:53.742Z,15.80
2022-11-30T17:54:22.845Z,16.48
2022-11-30T17:56:52.808Z,16.63
2022-11-30T17:59:25.856Z,16.23
2022-11-30T18:01:54.931Z,15.80
2022-11-30T18:04:24.199Z,16.77
2022-11-30T18:06:53.434Z,15.93
2022-11-30T18:09:23.985Z,18.02
2022-11-30T18:11:54.155Z,22.17
2022-11-30T18:14:23.298Z,20.17
2022-11-30T18:16:53.914Z,17.70
2022-11-30T18:19:26.170Z,16.40
2022-11-30T18:21:56.247Z,16.05
2022-11-30T18:24:25.979Z,17.60
2022-11-30T18:26:55.192Z,14.77
2022-11-30T18:29:24.500Z,15.60
2022-11-30T18:31:55.075Z,14.00
2022-11-30T18:34:24.186Z,15.30
2022-11-30T18:36:53.610Z,14.23
2022-11-30T18:39:22.974Z,13.65
2022-11-30T18:41:52.145Z,14.00
2022-11-30T18:44:21.293Z,13.05
2022-11-30T18:46:50.434Z,14.38
2022-11-30T18:49:22.672Z,14.55
2022-11-30T18:51:52.053Z,15.25
2022-11-30T18:54:22.870Z,14.57
2022-11-30T18:56:56.557Z,15.57
2022-11-30T18:59:26.312Z,15.95
2022-11-30T19:01:57.639Z,16.27
2022-11-30T19:04:29.013Z,15.45
2022-11-30T19:06:58.467Z,13.85
2022-11-30T19:09:28.672Z,13.65
2022-11-30T19:11:58.427Z,12.20
2022-11-30T19:14:29.956Z,12.85
2022-11-30T19:17:00.769Z,15.13
2022-11-30T19:19:32.348Z,20.30
2022-11-30T19:22:02.233Z,34.90
2022-11-30T19:24:34.577Z,30.42
2022-11-30T19:27:04.286Z,26.40
2022-11-30T19:29:33.791Z,15.73
2022-11-30T19:32:03.903Z,22.00
2022-11-30T19:34:34.407Z,21.17
2022-11-30T19:37:03.570Z,15.40
2022-11-30T19:39:34.158Z,17.33
2022-11-30T19:42:04.716Z,19.65
2022-11-30T19:44:34.023Z,27.00
2022-11-30T19:47:04.518Z,41.00
2022-11-30T19:49:36.221Z,39.20
2022-11-30T19:52:05.635Z,32.55
2022-11-30T19:54:34.681Z,30.38
2022-11-30T19:57:03.776Z,38.53
2022-11-30T19:59:33.059Z,40.38
2022-11-30T20:02:03.667Z,38.67
2022-11-30T20:04:35.420Z,22.85
2022-11-30T20:07:04.721Z,18.55
2022-11-30T20:09:34.232Z,18.88
2022-11-30T20:12:03.535Z,17.88
2022-11-30T20:14:32.535Z,14.75
2022-11-30T20:17:01.692Z,12.80
2022-11-30T20:19:31.679Z,12.65
2022-11-30T20:22:04.801Z,22.40
2022-11-30T20:24:34.883Z,17.25
2022-11-30T20:27:09.442Z,16.83
2022-11-30T20:29:38.716Z,21.15
2022-11-30T20:32:11.844Z,22.50
2022-11-30T20:34:43.899Z,27.50
2022-11-30T20:37:18.011Z,33.58
2022-11-30T20:40:30.236Z,29.88
2022-11-30T20:42:59.489Z,22.58
2022-11-30T20:45:28.952Z,18.75
2022-11-30T20:48:10.588Z,18.33
2022-11-30T20:50:39.968Z,17.23
2022-11-30T20:53:10.584Z,17.05
2022-11-30T20:55:40.611Z,23.23
2022-11-30T20:58:09.664Z,15.73
2022-11-30T21:00:39.034Z,18.05
2022-11-30T21:03:08.475Z,16.42
2022-11-30T21:05:40.194Z,17.13
2022-11-30T21:08:10.773Z,15.95
2022-11-30T21:10:43.585Z,16.42
2022-11-30T21:13:15.193Z,14.77
2022-11-30T21:15:47.967Z,12.77
2022-11-30T21:18:18.092Z,11.00
2022-11-30T21:20:50.836Z,11.65
2022-11-30T21:23:24.957Z,12.63
2022-11-30T21:25:54.784Z,12.98
2022-11-30T21:28:23.927Z,14.80
2022-11-30T21:30:59.911Z,23.10
2022-11-30T21:33:29.236Z,20.35
2022-11-30T21:35:58.314Z,25.38
2022-11-30T21:38:28.729Z,19.60
2022-11-30T21:40:59.173Z,14.02
2022-11-30T21:43:30.270Z,14.43
2022-11-30T21:46:01.730Z,13.63
2022-11-30T21:48:33.324Z,12.63
2022-11-30T21:51:04.960Z,13.60
2022-11-30T21:53:38.791Z,13.73
2022-11-30T21:56:12.831Z,12.48
2022-11-30T21:58:45.076Z,11.45
2022-11-30T22:01:16.735Z,12.20
2022-11-30T22:03:45.973Z,11.35
2022-11-30T22:06:19.520Z,10.48
2022-11-30T22:08:50.589Z,10.50
2022-11-30T22:11:22.658Z,10.80
2022-11-30T22:13:53.341Z,9.98
2022-11-30T22:16:24.946Z,9.75
2022-11-30T22:18:55.334Z,9.50
2022-11-30T22:21:27.097Z,9.20
2022-11-30T22:24:04.067Z,9.27
2022-11-30T22:26:45.052Z,9.43
2022-11-30T22:29:17.738Z,9.93
2022-11-30T22:31:50.876Z,9.63
2022-11-30T22:34:20.273Z,9.68
2022-11-30T22:36:49.772Z,9.73
2022-11-30T22:39:22.676Z,10.48
2022-11-30T22:41:55.839Z,9.68
2022-11-30T22:44:25.762Z,10.20
2022-11-30T22:46:55.948Z,9.38
2022-11-30T22:49:25.291Z,10.30
2022-11-30T22:51:54.318Z,11.25
2022-11-30T22:54:24.854Z,11.13
2022-11-30T22:56:54.354Z,11.60
2022-11-30T22:59:23.457Z,11.82
2022-11-30T23:01:52.434Z,11.13
2022-11-30T23:04:23.825Z,12.57
2022-11-30T23:06:53.303Z,11.60
2022-11-30T23:09:25.344Z,11.18
2022-11-30T23:11:54.572Z,13.10
2022-11-30T23:14:23.703Z,12.63
2022-11-30T23:16:54.178Z,11.85
2022-11-30T23:19:23.267Z,10.93
2022-11-30T23:21:53.353Z,12.00
2022-11-30T23:24:26.079Z,11.57
2022-11-30T23:26:55.125Z,10.85
2022-11-30T23:29:24.083Z,10.60
2022-11-30T23:31:53.305Z,11.52
2022-11-30T23:34:23.313Z,10.73
2022-11-30T23:36:52.810Z,11.13
2022-11-30T23:39:22.444Z,11.35
2022-11-30T23:41:52.833Z,11.93
2022-11-30T23:44:27.012Z,11.45
2022-11-30T23:46:56.081Z,11.32
2022-11-30T23:49:25.439Z,11.07
2022-11-30T23:51:54.421Z,11.10
2022-11-30T23:54:23.501Z,10.88
2022-11-30T23:56:53.981Z,11.98
2022-11-30T23:59:23.469Z,11.10
